sensor_id;sensor_type;location;lat;lon;timestamp;pressure;altitude;pressure_sealevel;temperature;humidity
75551;BME280;65071;53.082;18.218;2023-07-20T00:02:11;100572.61;;;15.47;75.06
75551;BME280;65071;53.082;18.218;2023-07-20T00:04:38;100579.05;;;15.45;75.50
75551;BME280;65071;53.082;18.218;2023-07-20T00:07:04;100584.73;;;15.43;75.17
75551;BME280;65071;53.082;18.218;2023-07-20T00:09:31;100592.34;;;15.43;74.87
75551;BME280;65071;53.082;18.218;2023-07-20T00:11:58;100595.00;;;15.43;74.88
75551;BME280;65071;53.082;18.218;2023-07-20T00:14:26;100589.78;;;15.43;74.75
75551;BME280;65071;53.082;18.218;2023-07-20T00:16:55;100586.16;;;15.43;74.80
75551;BME280;65071;53.082;18.218;2023-07-20T00:19:25;100588.74;;;15.42;75.75
75551;BME280;65071;53.082;18.218;2023-07-20T00:21:53;100588.98;;;15.36;76.43
75551;BME280;65071;53.082;18.218;2023-07-20T00:24:20;100592.73;;;15.32;76.80
75551;BME280;65071;53.082;18.218;2023-07-20T00:26:46;100593.98;;;15.27;77.08
75551;BME280;65071;53.082;18.218;2023-07-20T00:29:14;100586.09;;;15.21;76.60
75551;BME280;65071;53.082;18.218;2023-07-20T00:31:40;100585.52;;;15.17;76.68
75551;BME280;65071;53.082;18.218;2023-07-20T00:34:07;100586.31;;;15.14;76.83
75551;BME280;65071;53.082;18.218;2023-07-20T00:36:34;100589.73;;;15.11;76.48
75551;BME280;65071;53.082;18.218;2023-07-20T00:39:02;100595.00;;;15.11;76.08
75551;BME280;65071;53.082;18.218;2023-07-20T00:41:29;100598.92;;;15.10;76.48
75551;BME280;65071;53.082;18.218;2023-07-20T00:43:56;100598.68;;;15.09;76.67
75551;BME280;65071;53.082;18.218;2023-07-20T00:46:23;100594.71;;;15.09;76.62
75551;BME280;65071;53.082;18.218;2023-07-20T00:48:51;100586.02;;;15.09;76.87
75551;BME280;65071;53.082;18.218;2023-07-20T00:51:20;100583.29;;;15.07;77.16
75551;BME280;65071;53.082;18.218;2023-07-20T00:53:47;100584.11;;;15.07;76.56
75551;BME280;65071;53.082;18.218;2023-07-20T00:56:15;100586.60;;;15.05;76.72
75551;BME280;65071;53.082;18.218;2023-07-20T00:58:42;100579.91;;;15.05;76.67
75551;BME280;65071;53.082;18.218;2023-07-20T01:01:09;100581.14;;;15.06;76.98
75551;BME280;65071;53.082;18.218;2023-07-20T01:03:35;100588.55;;;15.06;76.99
75551;BME280;65071;53.082;18.218;2023-07-20T01:06:15;100588.10;;;15.05;77.26
75551;BME280;65071;53.082;18.218;2023-07-20T01:09:09;100590.77;;;15.04;77.01
75551;BME280;65071;53.082;18.218;2023-07-20T01:11:43;100588.73;;;15.06;76.83
75551;BME280;65071;53.082;18.218;2023-07-20T01:14:16;100587.98;;;15.07;76.66
75551;BME280;65071;53.082;18.218;2023-07-20T01:16:43;100587.83;;;15.09;76.70
75551;BME280;65071;53.082;18.218;2023-07-20T01:19:11;100588.63;;;15.10;76.63
75551;BME280;65071;53.082;18.218;2023-07-20T01:21:45;100590.10;;;15.09;78.05
75551;BME280;65071;53.082;18.218;2023-07-20T01:24:19;100593.59;;;15.06;77.73
75551;BME280;65071;53.082;18.218;2023-07-20T01:30:03;100597.30;;;15.04;77.13
75551;BME280;65071;53.082;18.218;2023-07-20T01:32:34;100589.86;;;15.04;77.14
75551;BME280;65071;53.082;18.218;2023-07-20T01:35:04;100591.45;;;15.06;76.81
75551;BME280;65071;53.082;18.218;2023-07-20T01:37:33;100587.43;;;15.08;77.38
75551;BME280;65071;53.082;18.218;2023-07-20T01:40:00;100589.48;;;15.08;77.19
75551;BME280;65071;53.082;18.218;2023-07-20T01:42:27;100594.96;;;15.08;77.51
75551;BME280;65071;53.082;18.218;2023-07-20T01:44:54;100595.88;;;15.08;77.29
75551;BME280;65071;53.082;18.218;2023-07-20T01:47:24;100599.36;;;15.09;77.18
75551;BME280;65071;53.082;18.218;2023-07-20T01:49:50;100599.77;;;15.10;77.08
75551;BME280;65071;53.082;18.218;2023-07-20T01:52:17;100598.13;;;15.12;76.99
75551;BME280;65071;53.082;18.218;2023-07-20T01:54:43;100595.30;;;15.14;76.90
75551;BME280;65071;53.082;18.218;2023-07-20T01:57:09;100595.21;;;15.16;76.95
75551;BME280;65071;53.082;18.218;2023-07-20T01:59:36;100599.13;;;15.18;76.98
75551;BME280;65071;53.082;18.218;2023-07-20T02:02:03;100602.54;;;15.20;76.49
75551;BME280;65071;53.082;18.218;2023-07-20T02:04:29;100599.63;;;15.24;76.84
75551;BME280;65071;53.082;18.218;2023-07-20T02:06:56;100606.95;;;15.24;77.09
75551;BME280;65071;53.082;18.218;2023-07-20T02:09:23;100605.59;;;15.25;77.05
75551;BME280;65071;53.082;18.218;2023-07-20T02:11:49;100606.48;;;15.26;77.01
75551;BME280;65071;53.082;18.218;2023-07-20T02:14:16;100606.52;;;15.28;76.98
75551;BME280;65071;53.082;18.218;2023-07-20T02:16:43;100614.74;;;15.30;76.73
75551;BME280;65071;53.082;18.218;2023-07-20T02:19:09;100611.96;;;15.32;76.61
75551;BME280;65071;53.082;18.218;2023-07-20T02:21:37;100612.77;;;15.33;76.52
75551;BME280;65071;53.082;18.218;2023-07-20T02:24:03;100617.02;;;15.34;76.64
75551;BME280;65071;53.082;18.218;2023-07-20T02:26:30;100611.30;;;15.34;76.59
75551;BME280;65071;53.082;18.218;2023-07-20T02:28:57;100610.08;;;15.34;76.50
75551;BME280;65071;53.082;18.218;2023-07-20T02:31:23;100609.38;;;15.35;76.77
75551;BME280;65071;53.082;18.218;2023-07-20T02:33:50;100605.80;;;15.37;76.62
75551;BME280;65071;53.082;18.218;2023-07-20T02:36:16;100603.43;;;15.38;76.65
75551;BME280;65071;53.082;18.218;2023-07-20T02:38:44;100598.63;;;15.39;76.74
75551;BME280;65071;53.082;18.218;2023-07-20T02:41:11;100592.17;;;15.40;76.89
75551;BME280;65071;53.082;18.218;2023-07-20T02:43:37;100590.08;;;15.39;77.34
75551;BME280;65071;53.082;18.218;2023-07-20T02:46:04;100587.92;;;15.39;77.28
75551;BME280;65071;53.082;18.218;2023-07-20T02:48:30;100585.69;;;15.39;77.22
75551;BME280;65071;53.082;18.218;2023-07-20T02:50:57;100588.79;;;15.42;77.05
75551;BME280;65071;53.082;18.218;2023-07-20T02:53:23;100590.03;;;15.45;77.61
75551;BME280;65071;53.082;18.218;2023-07-20T02:55:50;100589.86;;;15.50;77.19
75551;BME280;65071;53.082;18.218;2023-07-20T02:58:17;100597.32;;;15.54;77.48
75551;BME280;65071;53.082;18.218;2023-07-20T03:00:43;100600.22;;;15.57;77.50
75551;BME280;65071;53.082;18.218;2023-07-20T03:03:10;100605.02;;;15.59;77.63
75551;BME280;65071;53.082;18.218;2023-07-20T03:05:36;100609.14;;;15.61;78.55
75551;BME280;65071;53.082;18.218;2023-07-20T03:08:05;100607.95;;;15.60;78.45
75551;BME280;65071;53.082;18.218;2023-07-20T03:10:32;100603.39;;;15.60;78.32
75551;BME280;65071;53.082;18.218;2023-07-20T03:12:59;100607.26;;;15.61;78.28
75551;BME280;65071;53.082;18.218;2023-07-20T03:15:25;100604.83;;;15.63;78.20
75551;BME280;65071;53.082;18.218;2023-07-20T03:17:51;100608.29;;;15.66;78.41
75551;BME280;65071;53.082;18.218;2023-07-20T03:20:18;100603.13;;;15.68;78.20
75551;BME280;65071;53.082;18.218;2023-07-20T03:22:45;100602.05;;;15.71;78.29
75551;BME280;65071;53.082;18.218;2023-07-20T03:25:12;100603.27;;;15.73;78.11
75551;BME280;65071;53.082;18.218;2023-07-20T03:27:38;100601.04;;;15.78;77.82
75551;BME280;65071;53.082;18.218;2023-07-20T03:30:06;100605.30;;;15.84;77.89
75551;BME280;65071;53.082;18.218;2023-07-20T03:32:33;100606.38;;;15.91;77.65
75551;BME280;65071;53.082;18.218;2023-07-20T03:35:01;100601.43;;;16.01;78.53
75551;BME280;65071;53.082;18.218;2023-07-20T03:37:28;100603.85;;;16.07;79.16
75551;BME280;65071;53.082;18.218;2023-07-20T03:39:54;100607.27;;;16.13;79.99
75551;BME280;65071;53.082;18.218;2023-07-20T03:42:21;100609.17;;;16.18;79.78
75551;BME280;65071;53.082;18.218;2023-07-20T03:44:47;100607.91;;;16.22;79.30
75551;BME280;65071;53.082;18.218;2023-07-20T03:47:14;100609.44;;;16.27;78.41
75551;BME280;65071;53.082;18.218;2023-07-20T03:49:40;100608.91;;;16.33;78.10
75551;BME280;65071;53.082;18.218;2023-07-20T03:52:07;100612.38;;;16.37;77.80
75551;BME280;65071;53.082;18.218;2023-07-20T03:54:34;100613.59;;;16.40;77.89
75551;BME280;65071;53.082;18.218;2023-07-20T03:57:01;100615.32;;;16.41;77.71
75551;BME280;65071;53.082;18.218;2023-07-20T03:59:27;100615.14;;;16.39;77.47
75551;BME280;65071;53.082;18.218;2023-07-20T04:01:54;100620.83;;;16.42;77.09
75551;BME280;65071;53.082;18.218;2023-07-20T04:04:21;100615.63;;;16.46;76.95
75551;BME280;65071;53.082;18.218;2023-07-20T04:06:48;100611.93;;;16.49;76.91
75551;BME280;65071;53.082;18.218;2023-07-20T04:09:14;100610.55;;;16.51;76.53
75551;BME280;65071;53.082;18.218;2023-07-20T04:11:41;100612.80;;;16.54;76.39
75551;BME280;65071;53.082;18.218;2023-07-20T04:14:07;100609.46;;;16.56;76.23
75551;BME280;65071;53.082;18.218;2023-07-20T04:16:33;100615.77;;;16.57;76.26
75551;BME280;65071;53.082;18.218;2023-07-20T04:19:00;100617.98;;;16.57;75.89
75551;BME280;65071;53.082;18.218;2023-07-20T04:21:27;100609.95;;;16.57;75.65
75551;BME280;65071;53.082;18.218;2023-07-20T04:23:54;100608.16;;;16.59;75.51
75551;BME280;65071;53.082;18.218;2023-07-20T04:26:20;100611.48;;;16.61;75.55
75551;BME280;65071;53.082;18.218;2023-07-20T04:28:47;100613.42;;;16.66;75.32
75551;BME280;65071;53.082;18.218;2023-07-20T04:31:22;100615.88;;;16.74;75.31
75551;BME280;65071;53.082;18.218;2023-07-20T04:33:49;100615.80;;;16.78;74.99
75551;BME280;65071;53.082;18.218;2023-07-20T04:36:16;100614.66;;;16.82;74.87
75551;BME280;65071;53.082;18.218;2023-07-20T04:38:45;100614.84;;;16.84;74.73
75551;BME280;65071;53.082;18.218;2023-07-20T04:41:18;100618.60;;;16.84;74.45
75551;BME280;65071;53.082;18.218;2023-07-20T04:43:47;100621.15;;;16.87;74.33
75551;BME280;65071;53.082;18.218;2023-07-20T04:46:17;100617.77;;;16.88;73.93
75551;BME280;65071;53.082;18.218;2023-07-20T04:48:45;100616.95;;;16.90;73.90
75551;BME280;65071;53.082;18.218;2023-07-20T04:51:11;100616.96;;;16.93;73.64
75551;BME280;65071;53.082;18.218;2023-07-20T04:53:39;100610.83;;;16.95;72.90
75551;BME280;65071;53.082;18.218;2023-07-20T04:56:08;100612.53;;;16.99;72.93
75551;BME280;65071;53.082;18.218;2023-07-20T04:58:34;100615.33;;;17.03;73.05
75551;BME280;65071;53.082;18.218;2023-07-20T05:01:01;100612.66;;;17.03;72.88
75551;BME280;65071;53.082;18.218;2023-07-20T05:03:27;100618.17;;;17.06;72.92
75551;BME280;65071;53.082;18.218;2023-07-20T05:05:54;100619.77;;;17.09;72.73
75551;BME280;65071;53.082;18.218;2023-07-20T05:08:21;100617.00;;;17.12;72.06
75551;BME280;65071;53.082;18.218;2023-07-20T05:10:48;100618.09;;;17.12;72.06
75551;BME280;65071;53.082;18.218;2023-07-20T05:13:15;100619.66;;;17.15;72.22
75551;BME280;65071;53.082;18.218;2023-07-20T05:15:42;100615.73;;;17.23;71.70
75551;BME280;65071;53.082;18.218;2023-07-20T05:18:12;100605.08;;;17.31;71.09
75551;BME280;65071;53.082;18.218;2023-07-20T05:20:39;100608.90;;;17.39;70.53
75551;BME280;65071;53.082;18.218;2023-07-20T05:23:06;100609.75;;;17.45;69.91
75551;BME280;65071;53.082;18.218;2023-07-20T05:25:32;100614.55;;;17.50;70.34
75551;BME280;65071;53.082;18.218;2023-07-20T05:27:59;100615.70;;;17.55;70.02
75551;BME280;65071;53.082;18.218;2023-07-20T05:30:26;100620.59;;;17.65;71.16
75551;BME280;65071;53.082;18.218;2023-07-20T05:32:52;100617.96;;;17.76;71.82
75551;BME280;65071;53.082;18.218;2023-07-20T05:35:20;100620.27;;;17.87;71.79
75551;BME280;65071;53.082;18.218;2023-07-20T05:37:47;100619.91;;;17.97;71.63
75551;BME280;65071;53.082;18.218;2023-07-20T05:40:14;100622.58;;;18.04;71.65
75551;BME280;65071;53.082;18.218;2023-07-20T05:42:45;100626.92;;;18.09;71.68
75551;BME280;65071;53.082;18.218;2023-07-20T05:45:14;100627.77;;;18.13;71.47
75551;BME280;65071;53.082;18.218;2023-07-20T05:47:43;100621.96;;;18.18;71.41
75551;BME280;65071;53.082;18.218;2023-07-20T05:50:10;100625.09;;;18.23;71.55
75551;BME280;65071;53.082;18.218;2023-07-20T05:52:36;100623.66;;;18.28;71.13
75551;BME280;65071;53.082;18.218;2023-07-20T05:55:05;100623.33;;;18.31;71.01
75551;BME280;65071;53.082;18.218;2023-07-20T05:57:32;100621.83;;;18.34;70.92
75551;BME280;65071;53.082;18.218;2023-07-20T05:59:59;100619.19;;;18.38;70.84
75551;BME280;65071;53.082;18.218;2023-07-20T06:02:25;100620.77;;;18.43;70.59
75551;BME280;65071;53.082;18.218;2023-07-20T06:04:52;100620.96;;;18.47;70.62
75551;BME280;65071;53.082;18.218;2023-07-20T06:07:18;100620.17;;;18.49;70.46
75551;BME280;65071;53.082;18.218;2023-07-20T06:09:45;100618.95;;;18.52;70.21
75551;BME280;65071;53.082;18.218;2023-07-20T06:12:11;100619.06;;;18.59;69.88
75551;BME280;65071;53.082;18.218;2023-07-20T06:14:38;100622.22;;;18.68;69.90
75551;BME280;65071;53.082;18.218;2023-07-20T06:17:05;100625.47;;;18.79;69.17
75551;BME280;65071;53.082;18.218;2023-07-20T06:19:32;100626.57;;;18.87;68.66
75551;BME280;65071;53.082;18.218;2023-07-20T06:21:58;100619.20;;;18.92;68.29
75551;BME280;65071;53.082;18.218;2023-07-20T06:24:24;100624.71;;;19.00;68.56
75551;BME280;65071;53.082;18.218;2023-07-20T06:26:51;100626.25;;;19.09;68.51
75551;BME280;65071;53.082;18.218;2023-07-20T06:29:17;100622.73;;;19.17;67.95
75551;BME280;65071;53.082;18.218;2023-07-20T06:31:45;100627.47;;;19.27;67.53
75551;BME280;65071;53.082;18.218;2023-07-20T06:34:11;100625.30;;;19.38;66.90
75551;BME280;65071;53.082;18.218;2023-07-20T06:36:38;100629.86;;;19.50;66.34
75551;BME280;65071;53.082;18.218;2023-07-20T06:39:04;100627.82;;;19.61;65.71
75551;BME280;65071;53.082;18.218;2023-07-20T06:41:31;100629.04;;;19.73;64.84
75551;BME280;65071;53.082;18.218;2023-07-20T06:43:58;100630.36;;;19.84;64.39
75551;BME280;65071;53.082;18.218;2023-07-20T06:46:25;100631.48;;;19.97;65.00
75551;BME280;65071;53.082;18.218;2023-07-20T06:48:53;100633.77;;;20.09;65.03
75551;BME280;65071;53.082;18.218;2023-07-20T06:51:20;100631.86;;;20.23;64.79
75551;BME280;65071;53.082;18.218;2023-07-20T06:53:46;100635.21;;;20.35;64.47
75551;BME280;65071;53.082;18.218;2023-07-20T06:56:12;100634.19;;;20.46;63.02
75551;BME280;65071;53.082;18.218;2023-07-20T06:58:39;100640.25;;;20.61;62.24
75551;BME280;65071;53.082;18.218;2023-07-20T07:01:07;100640.08;;;20.73;60.55
75551;BME280;65071;53.082;18.218;2023-07-20T07:03:34;100637.16;;;20.96;60.26
75551;BME280;65071;53.082;18.218;2023-07-20T07:06:00;100630.44;;;21.24;60.17
75551;BME280;65071;53.082;18.218;2023-07-20T07:08:27;100632.52;;;21.45;59.22
75551;BME280;65071;53.082;18.218;2023-07-20T07:10:53;100629.15;;;21.53;57.97
75551;BME280;65071;53.082;18.218;2023-07-20T07:13:20;100629.16;;;21.55;57.23
75551;BME280;65071;53.082;18.218;2023-07-20T07:15:47;100631.30;;;21.61;56.30
75551;BME280;65071;53.082;18.218;2023-07-20T07:18:13;100625.77;;;21.80;54.47
75551;BME280;65071;53.082;18.218;2023-07-20T07:20:40;100623.34;;;22.07;54.45
75551;BME280;65071;53.082;18.218;2023-07-20T07:23:06;100622.13;;;22.34;54.57
75551;BME280;65071;53.082;18.218;2023-07-20T07:25:33;100621.80;;;22.63;54.27
75551;BME280;65071;53.082;18.218;2023-07-20T07:27:59;100621.92;;;22.86;53.10
75551;BME280;65071;53.082;18.218;2023-07-20T07:30:26;100620.56;;;23.11;52.95
75551;BME280;65071;53.082;18.218;2023-07-20T07:32:52;100623.05;;;23.40;52.79
75551;BME280;65071;53.082;18.218;2023-07-20T07:35:19;100626.67;;;23.65;51.34
75551;BME280;65071;53.082;18.218;2023-07-20T07:37:45;100624.84;;;23.94;48.97
75551;BME280;65071;53.082;18.218;2023-07-20T07:40:12;100623.05;;;24.18;49.87
75551;BME280;65071;53.082;18.218;2023-07-20T07:42:39;100630.04;;;24.15;49.45
75551;BME280;65071;53.082;18.218;2023-07-20T07:45:06;100624.83;;;24.18;48.90
75551;BME280;65071;53.082;18.218;2023-07-20T07:47:33;100624.46;;;24.36;47.19
75551;BME280;65071;53.082;18.218;2023-07-20T07:49:59;100626.01;;;24.28;47.09
75551;BME280;65071;53.082;18.218;2023-07-20T07:52:26;100626.61;;;24.02;47.52
75551;BME280;65071;53.082;18.218;2023-07-20T07:54:53;100623.73;;;23.82;47.62
75551;BME280;65071;53.082;18.218;2023-07-20T07:57:19;100622.91;;;23.72;48.87
75551;BME280;65071;53.082;18.218;2023-07-20T07:59:46;100626.13;;;23.55;48.23
75551;BME280;65071;53.082;18.218;2023-07-20T08:02:12;100627.61;;;23.48;48.17
75551;BME280;65071;53.082;18.218;2023-07-20T08:04:39;100627.41;;;23.56;48.26
75551;BME280;65071;53.082;18.218;2023-07-20T08:07:05;100628.06;;;23.73;47.96
75551;BME280;65071;53.082;18.218;2023-07-20T08:09:32;100626.11;;;23.82;47.59
75551;BME280;65071;53.082;18.218;2023-07-20T08:11:59;100626.89;;;23.97;47.34
75551;BME280;65071;53.082;18.218;2023-07-20T08:14:26;100623.52;;;23.97;46.95
75551;BME280;65071;53.082;18.218;2023-07-20T08:16:53;100623.48;;;23.96;47.05
75551;BME280;65071;53.082;18.218;2023-07-20T08:19:20;100618.91;;;24.17;46.33
75551;BME280;65071;53.082;18.218;2023-07-20T08:21:47;100626.95;;;24.60;46.61
75551;BME280;65071;53.082;18.218;2023-07-20T08:24:14;100629.35;;;24.99;46.12
75551;BME280;65071;53.082;18.218;2023-07-20T08:26:40;100620.44;;;25.31;45.01
75551;BME280;65071;53.082;18.218;2023-07-20T08:29:07;100616.53;;;25.56;44.29
75551;BME280;65071;53.082;18.218;2023-07-20T08:31:33;100617.53;;;25.68;43.89
75551;BME280;65071;53.082;18.218;2023-07-20T08:34:00;100610.95;;;25.84;43.11
75551;BME280;65071;53.082;18.218;2023-07-20T08:36:26;100613.38;;;25.75;43.02
75551;BME280;65071;53.082;18.218;2023-07-20T08:38:53;100618.98;;;25.51;42.09
75551;BME280;65071;53.082;18.218;2023-07-20T08:41:20;100619.58;;;25.02;42.53
75551;BME280;65071;53.082;18.218;2023-07-20T08:43:47;100621.05;;;24.82;43.54
75551;BME280;65071;53.082;18.218;2023-07-20T08:46:14;100624.35;;;24.71;44.36
75551;BME280;65071;53.082;18.218;2023-07-20T08:48:42;100622.66;;;24.58;43.82
75551;BME280;65071;53.082;18.218;2023-07-20T08:51:10;100623.70;;;24.29;43.64
75551;BME280;65071;53.082;18.218;2023-07-20T08:53:37;100627.75;;;24.10;44.64
75551;BME280;65071;53.082;18.218;2023-07-20T08:56:04;100615.45;;;24.13;45.11
75551;BME280;65071;53.082;18.218;2023-07-20T08:58:31;100611.70;;;24.21;45.02
75551;BME280;65071;53.082;18.218;2023-07-20T09:01:00;100613.11;;;24.46;45.07
75551;BME280;65071;53.082;18.218;2023-07-20T09:03:27;100617.61;;;24.42;44.89
75551;BME280;65071;53.082;18.218;2023-07-20T09:05:54;100619.31;;;24.29;44.81
75551;BME280;65071;53.082;18.218;2023-07-20T09:08:20;100619.61;;;24.20;44.45
75551;BME280;65071;53.082;18.218;2023-07-20T09:10:47;100619.71;;;24.19;44.43
75551;BME280;65071;53.082;18.218;2023-07-20T09:13:14;100617.52;;;24.18;45.01
75551;BME280;65071;53.082;18.218;2023-07-20T09:15:53;100614.95;;;24.08;44.89
75551;BME280;65071;53.082;18.218;2023-07-20T09:18:30;100615.08;;;24.06;44.96
75551;BME280;65071;53.082;18.218;2023-07-20T09:21:04;100609.23;;;24.11;44.58
75551;BME280;65071;53.082;18.218;2023-07-20T09:23:35;100612.44;;;24.25;44.07
75551;BME280;65071;53.082;18.218;2023-07-20T09:26:18;100609.11;;;24.35;43.56
75551;BME280;65071;53.082;18.218;2023-07-20T09:28:49;100612.12;;;24.31;43.75
75551;BME280;65071;53.082;18.218;2023-07-20T09:31:18;100602.27;;;24.47;43.31
75551;BME280;65071;53.082;18.218;2023-07-20T09:33:46;100598.45;;;24.64;42.61
75551;BME280;65071;53.082;18.218;2023-07-20T09:36:13;100602.66;;;24.65;42.56
75551;BME280;65071;53.082;18.218;2023-07-20T09:38:43;100599.68;;;24.53;42.73
75551;BME280;65071;53.082;18.218;2023-07-20T09:41:14;100598.20;;;24.46;43.34
75551;BME280;65071;53.082;18.218;2023-07-20T09:43:42;100603.44;;;24.51;42.81
75551;BME280;65071;53.082;18.218;2023-07-20T09:46:08;100599.52;;;24.66;42.86
75551;BME280;65071;53.082;18.218;2023-07-20T09:48:35;100597.89;;;24.84;42.28
75551;BME280;65071;53.082;18.218;2023-07-20T09:51:02;100586.92;;;25.00;42.61
75551;BME280;65071;53.082;18.218;2023-07-20T09:53:32;100583.14;;;25.00;41.07
75551;BME280;65071;53.082;18.218;2023-07-20T09:55:59;100584.02;;;24.77;41.09
75551;BME280;65071;53.082;18.218;2023-07-20T09:58:26;100585.11;;;24.59;41.23
75551;BME280;65071;53.082;18.218;2023-07-20T10:00:56;100589.86;;;24.50;40.94
75551;BME280;65071;53.082;18.218;2023-07-20T10:03:28;100590.16;;;24.49;41.33
75551;BME280;65071;53.082;18.218;2023-07-20T10:06:20;100588.80;;;24.56;40.73
75551;BME280;65071;53.082;18.218;2023-07-20T10:08:53;100584.44;;;24.88;39.94
75551;BME280;65071;53.082;18.218;2023-07-20T10:11:21;100574.40;;;25.01;39.51
75551;BME280;65071;53.082;18.218;2023-07-20T10:13:51;100572.36;;;24.98;39.36
75551;BME280;65071;53.082;18.218;2023-07-20T10:16:24;100579.00;;;24.99;39.13
75551;BME280;65071;53.082;18.218;2023-07-20T10:21:39;100580.45;;;24.81;38.78
75551;BME280;65071;53.082;18.218;2023-07-20T10:24:07;100575.47;;;24.70;38.36
75551;BME280;65071;53.082;18.218;2023-07-20T10:26:34;100573.39;;;24.58;38.55
75551;BME280;65071;53.082;18.218;2023-07-20T10:29:01;100571.89;;;24.60;38.43
75551;BME280;65071;53.082;18.218;2023-07-20T10:31:29;100568.38;;;24.85;38.22
75551;BME280;65071;53.082;18.218;2023-07-20T10:33:56;100564.14;;;25.02;38.25
75551;BME280;65071;53.082;18.218;2023-07-20T10:36:25;100561.03;;;25.30;38.13
75551;BME280;65071;53.082;18.218;2023-07-20T10:38:55;100556.92;;;25.47;37.92
75551;BME280;65071;53.082;18.218;2023-07-20T10:41:33;100555.50;;;25.63;37.08
75551;BME280;65071;53.082;18.218;2023-07-20T10:44:04;100550.46;;;25.66;36.42
75551;BME280;65071;53.082;18.218;2023-07-20T10:49:04;100549.27;;;25.86;36.39
75551;BME280;65071;53.082;18.218;2023-07-20T10:51:45;100549.71;;;25.95;35.67
75551;BME280;65071;53.082;18.218;2023-07-20T10:56:49;100541.95;;;26.42;35.68
75551;BME280;65071;53.082;18.218;2023-07-20T10:59:19;100542.88;;;26.52;35.52
75551;BME280;65071;53.082;18.218;2023-07-20T11:01:46;100546.14;;;26.34;35.42
75551;BME280;65071;53.082;18.218;2023-07-20T11:04:13;100546.36;;;26.09;34.99
75551;BME280;65071;53.082;18.218;2023-07-20T11:06:44;100546.13;;;25.73;35.12
75551;BME280;65071;53.082;18.218;2023-07-20T11:09:14;100549.28;;;25.57;35.60
75551;BME280;65071;53.082;18.218;2023-07-20T11:11:46;100553.29;;;25.37;35.89
75551;BME280;65071;53.082;18.218;2023-07-20T11:14:29;100550.98;;;25.20;36.30
75551;BME280;65071;53.082;18.218;2023-07-20T11:17:14;100550.16;;;25.09;36.65
75551;BME280;65071;53.082;18.218;2023-07-20T11:19:41;100549.56;;;25.03;36.79
75551;BME280;65071;53.082;18.218;2023-07-20T11:22:08;100547.31;;;24.99;37.19
75551;BME280;65071;53.082;18.218;2023-07-20T11:24:41;100547.04;;;25.00;37.24
75551;BME280;65071;53.082;18.218;2023-07-20T11:27:08;100540.60;;;24.98;37.47
75551;BME280;65071;53.082;18.218;2023-07-20T11:29:37;100539.92;;;24.93;37.83
75551;BME280;65071;53.082;18.218;2023-07-20T11:32:04;100535.79;;;24.97;37.84
75551;BME280;65071;53.082;18.218;2023-07-20T11:34:31;100537.34;;;25.01;37.51
75551;BME280;65071;53.082;18.218;2023-07-20T11:36:59;100534.92;;;25.05;37.71
75551;BME280;65071;53.082;18.218;2023-07-20T11:39:25;100528.12;;;25.05;37.78
75551;BME280;65071;53.082;18.218;2023-07-20T11:41:54;100526.19;;;25.16;37.76
75551;BME280;65071;53.082;18.218;2023-07-20T11:44:23;100522.08;;;25.23;37.63
75551;BME280;65071;53.082;18.218;2023-07-20T11:47:19;100523.80;;;25.23;37.55
75551;BME280;65071;53.082;18.218;2023-07-20T11:49:46;100517.42;;;25.05;37.65
75551;BME280;65071;53.082;18.218;2023-07-20T11:52:17;100524.48;;;25.05;37.95
75551;BME280;65071;53.082;18.218;2023-07-20T11:54:44;100527.48;;;25.11;37.99
75551;BME280;65071;53.082;18.218;2023-07-20T11:57:18;100527.15;;;25.07;37.71
75551;BME280;65071;53.082;18.218;2023-07-20T11:59:57;100537.55;;;24.96;37.94
75551;BME280;65071;53.082;18.218;2023-07-20T12:02:28;100550.58;;;24.75;38.48
75551;BME280;65071;53.082;18.218;2023-07-20T12:04:56;100589.30;;;24.32;40.27
75551;BME280;65071;53.082;18.218;2023-07-20T12:07:23;100602.06;;;23.71;42.58
75551;BME280;65071;53.082;18.218;2023-07-20T12:10:10;100619.48;;;22.98;44.86
75551;BME280;65071;53.082;18.218;2023-07-20T12:12:41;100625.02;;;22.27;46.44
75551;BME280;65071;53.082;18.218;2023-07-20T12:17:50;100638.83;;;21.26;50.12
75551;BME280;65071;53.082;18.218;2023-07-20T12:20:32;100641.26;;;20.96;51.05
75551;BME280;65071;53.082;18.218;2023-07-20T12:23:02;100643.65;;;20.68;52.42
75551;BME280;65071;53.082;18.218;2023-07-20T12:25:37;100643.84;;;20.47;53.61
75551;BME280;65071;53.082;18.218;2023-07-20T12:28:16;100640.71;;;20.30;53.66
75551;BME280;65071;53.082;18.218;2023-07-20T12:30:44;100643.34;;;19.92;56.44
75551;BME280;65071;53.082;18.218;2023-07-20T12:33:11;100649.66;;;19.80;56.75
75551;BME280;65071;53.082;18.218;2023-07-20T12:35:41;100644.48;;;19.67;56.81
75551;BME280;65071;53.082;18.218;2023-07-20T12:38:09;100647.20;;;19.58;57.84
75551;BME280;65071;53.082;18.218;2023-07-20T12:40:36;100645.25;;;19.58;57.01
75551;BME280;65071;53.082;18.218;2023-07-20T12:43:02;100641.30;;;19.62;57.16
75551;BME280;65071;53.082;18.218;2023-07-20T12:45:30;100639.42;;;19.68;57.35
75551;BME280;65071;53.082;18.218;2023-07-20T12:47:56;100638.25;;;19.82;56.50
75551;BME280;65071;53.082;18.218;2023-07-20T12:50:23;100638.60;;;19.89;56.96
75551;BME280;65071;53.082;18.218;2023-07-20T12:52:49;100631.70;;;20.04;56.45
75551;BME280;65071;53.082;18.218;2023-07-20T12:55:16;100626.96;;;20.24;55.77
75551;BME280;65071;53.082;18.218;2023-07-20T12:57:43;100625.87;;;20.41;55.48
75551;BME280;65071;53.082;18.218;2023-07-20T13:00:10;100628.09;;;20.55;55.00